sensor_id;sensor_type;location;lat;lon;timestamp;P1;durP1;ratioP1;P2;durP2;ratioP2
20861;SDS011;10591;52.532;13.348;2024-03-02T00:02:11;76.07;;;46.05;;
20861;SDS011;10591;52.532;13.348;2024-03-02T00:04:44;58.25;;;38.98;;
20861;SDS011;10591;52.532;13.348;2024-03-02T00:07:15;55.78;;;38.42;;
20861;SDS011;10591;52.532;13.348;2024-03-02T00:09:47;55.60;;;36.65;;
20861;SDS011;10591;52.532;13.348;2024-03-02T00:12:17;58.02;;;37.50;;
20861;SDS011;10591;52.532;13.348;2024-03-02T00:14:49;56.35;;;37.45;;
20861;SDS011;10591;52.532;13.348;2024-03-02T00:17:24;56.88;;;38.55;;
20861;SDS011;10591;52.532;13.348;2024-03-02T00:19:55;55.90;;;37.65;;
20861;SDS011;10591;52.532;13.348;2024-03-02T00:22:26;58.10;;;39.45;;
20861;SDS011;10591;52.532;13.348;2024-03-02T00:24:58;58.35;;;37.93;;
20861;SDS011;10591;52.532;13.348;2024-03-02T00:27:30;58.65;;;39.30;;
20861;SDS011;10591;52.532;13.348;2024-03-02T00:30:06;58.30;;;38.90;;
20861;SDS011;10591;52.532;13.348;2024-03-02T00:32:36;55.85;;;38.88;;
20861;SDS011;10591;52.532;13.348;2024-03-02T00:35:07;54.67;;;38.75;;
20861;SDS011;10591;52.532;13.348;2024-03-02T00:37:39;56.68;;;38.48;;
20861;SDS011;10591;52.532;13.348;2024-03-02T00:40:10;54.55;;;38.73;;
20861;SDS011;10591;52.532;13.348;2024-03-02T00:42:43;61.20;;;40.35;;
20861;SDS011;10591;52.532;13.348;2024-03-02T00:45:14;51.80;;;37.98;;
20861;SDS011;10591;52.532;13.348;2024-03-02T00:47:44;55.20;;;40.15;;
20861;SDS011;10591;52.532;13.348;2024-03-02T00:50:17;58.15;;;40.00;;
20861;SDS011;10591;52.532;13.348;2024-03-02T00:52:49;59.67;;;39.75;;
20861;SDS011;10591;52.532;13.348;2024-03-02T00:55:20;58.95;;;40.83;;
20861;SDS011;10591;52.532;13.348;2024-03-02T00:57:52;59.83;;;41.40;;
20861;SDS011;10591;52.532;13.348;2024-03-02T01:00:22;63.10;;;42.65;;
20861;SDS011;10591;52.532;13.348;2024-03-02T01:02:53;59.80;;;40.83;;
20861;SDS011;10591;52.532;13.348;2024-03-02T01:05:24;61.28;;;41.30;;
20861;SDS011;10591;52.532;13.348;2024-03-02T01:07:55;57.90;;;39.67;;
20861;SDS011;10591;52.532;13.348;2024-03-02T01:10:25;56.63;;;39.45;;
20861;SDS011;10591;52.532;13.348;2024-03-02T01:12:56;58.10;;;39.70;;
20861;SDS011;10591;52.532;13.348;2024-03-02T01:15:27;57.93;;;39.53;;
20861;SDS011;10591;52.532;13.348;2024-03-02T01:17:57;55.90;;;39.42;;
20861;SDS011;10591;52.532;13.348;2024-03-02T01:20:28;54.23;;;38.25;;
20861;SDS011;10591;52.532;13.348;2024-03-02T01:22:59;54.98;;;39.67;;
20861;SDS011;10591;52.532;13.348;2024-03-02T01:25:31;59.53;;;39.75;;
20861;SDS011;10591;52.532;13.348;2024-03-02T01:28:02;57.98;;;40.33;;
20861;SDS011;10591;52.532;13.348;2024-03-02T01:30:34;56.18;;;40.88;;
20861;SDS011;10591;52.532;13.348;2024-03-02T01:33:05;58.20;;;40.98;;
20861;SDS011;10591;52.532;13.348;2024-03-02T01:35:37;56.02;;;40.52;;
20861;SDS011;10591;52.532;13.348;2024-03-02T01:38:08;56.53;;;39.78;;
20861;SDS011;10591;52.532;13.348;2024-03-02T01:40:39;57.05;;;41.02;;
20861;SDS011;10591;52.532;13.348;2024-03-02T01:43:11;58.33;;;41.77;;
20861;SDS011;10591;52.532;13.348;2024-03-02T01:45:43;60.90;;;40.67;;
20861;SDS011;10591;52.532;13.348;2024-03-02T01:48:17;59.33;;;41.23;;
20861;SDS011;10591;52.532;13.348;2024-03-02T01:50:48;64.80;;;42.20;;
20861;SDS011;10591;52.532;13.348;2024-03-02T01:53:20;66.10;;;44.08;;
20861;SDS011;10591;52.532;13.348;2024-03-02T01:55:50;67.27;;;45.03;;
20861;SDS011;10591;52.532;13.348;2024-03-02T01:58:21;66.45;;;44.23;;
20861;SDS011;10591;52.532;13.348;2024-03-02T02:00:52;65.15;;;43.83;;
20861;SDS011;10591;52.532;13.348;2024-03-02T02:03:23;59.90;;;42.83;;
20861;SDS011;10591;52.532;13.348;2024-03-02T02:05:53;64.97;;;44.75;;
20861;SDS011;10591;52.532;13.348;2024-03-02T02:08:27;65.75;;;44.55;;
20861;SDS011;10591;52.532;13.348;2024-03-02T02:10:57;62.65;;;44.38;;
20861;SDS011;10591;52.532;13.348;2024-03-02T02:13:28;65.55;;;44.42;;
20861;SDS011;10591;52.532;13.348;2024-03-02T02:16:08;67.85;;;44.85;;
20861;SDS011;10591;52.532;13.348;2024-03-02T02:18:39;67.42;;;45.45;;
20861;SDS011;10591;52.532;13.348;2024-03-02T02:21:10;68.87;;;44.85;;
20861;SDS011;10591;52.532;13.348;2024-03-02T02:23:42;67.35;;;45.70;;
20861;SDS011;10591;52.532;13.348;2024-03-02T02:26:14;68.80;;;45.43;;
20861;SDS011;10591;52.532;13.348;2024-03-02T02:28:45;67.22;;;44.95;;
20861;SDS011;10591;52.532;13.348;2024-03-02T02:31:16;68.33;;;45.65;;
20861;SDS011;10591;52.532;13.348;2024-03-02T02:33:47;69.45;;;46.50;;
20861;SDS011;10591;52.532;13.348;2024-03-02T02:36:18;67.60;;;45.85;;
20861;SDS011;10591;52.532;13.348;2024-03-02T02:38:48;71.20;;;47.20;;
20861;SDS011;10591;52.532;13.348;2024-03-02T02:41:19;73.25;;;47.60;;
20861;SDS011;10591;52.532;13.348;2024-03-02T02:43:50;73.22;;;46.25;;
20861;SDS011;10591;52.532;13.348;2024-03-02T02:46:20;74.42;;;47.62;;
20861;SDS011;10591;52.532;13.348;2024-03-02T02:48:51;69.12;;;46.58;;
20861;SDS011;10591;52.532;13.348;2024-03-02T02:51:22;72.70;;;47.50;;
20861;SDS011;10591;52.532;13.348;2024-03-02T02:53:54;67.47;;;46.05;;
20861;SDS011;10591;52.532;13.348;2024-03-02T02:56:25;70.45;;;47.13;;
20861;SDS011;10591;52.532;13.348;2024-03-02T02:58:56;71.92;;;47.13;;
20861;SDS011;10591;52.532;13.348;2024-03-02T03:01:27;71.95;;;46.45;;
20861;SDS011;10591;52.532;13.348;2024-03-02T03:03:58;65.60;;;45.55;;
20861;SDS011;10591;52.532;13.348;2024-03-02T03:06:30;67.30;;;45.65;;
20861;SDS011;10591;52.532;13.348;2024-03-02T03:09:01;69.05;;;45.70;;
20861;SDS011;10591;52.532;13.348;2024-03-02T03:11:32;70.22;;;45.95;;
20861;SDS011;10591;52.532;13.348;2024-03-02T03:14:03;70.78;;;45.43;;
20861;SDS011;10591;52.532;13.348;2024-03-02T03:16:34;71.47;;;46.33;;
20861;SDS011;10591;52.532;13.348;2024-03-02T03:19:04;67.62;;;45.35;;
20861;SDS011;10591;52.532;13.348;2024-03-02T03:21:35;66.60;;;45.58;;
20861;SDS011;10591;52.532;13.348;2024-03-02T03:24:06;72.20;;;45.50;;
20861;SDS011;10591;52.532;13.348;2024-03-02T03:26:37;68.97;;;45.23;;
20861;SDS011;10591;52.532;13.348;2024-03-02T03:29:08;65.97;;;44.50;;
20861;SDS011;10591;52.532;13.348;2024-03-02T03:31:39;67.15;;;44.15;;
20861;SDS011;10591;52.532;13.348;2024-03-02T03:34:09;68.33;;;45.08;;
20861;SDS011;10591;52.532;13.348;2024-03-02T03:36:42;66.22;;;45.73;;
20861;SDS011;10591;52.532;13.348;2024-03-02T03:39:12;63.25;;;45.05;;
20861;SDS011;10591;52.532;13.348;2024-03-02T03:41:44;69.03;;;45.35;;
20861;SDS011;10591;52.532;13.348;2024-03-02T03:44:15;66.00;;;43.80;;
20861;SDS011;10591;52.532;13.348;2024-03-02T03:46:46;68.87;;;45.12;;
20861;SDS011;10591;52.532;13.348;2024-03-02T03:49:17;67.27;;;44.15;;
20861;SDS011;10591;52.532;13.348;2024-03-02T03:51:47;64.70;;;43.40;;
20861;SDS011;10591;52.532;13.348;2024-03-02T03:54:18;63.35;;;44.08;;
20861;SDS011;10591;52.532;13.348;2024-03-02T03:56:49;67.15;;;42.98;;
20861;SDS011;10591;52.532;13.348;2024-03-02T03:59:21;64.70;;;42.48;;
20861;SDS011;10591;52.532;13.348;2024-03-02T04:01:53;62.33;;;42.13;;
20861;SDS011;10591;52.532;13.348;2024-03-02T04:04:23;65.62;;;43.38;;
20861;SDS011;10591;52.532;13.348;2024-03-02T04:06:54;60.75;;;42.38;;
20861;SDS011;10591;52.532;13.348;2024-03-02T04:09:26;63.75;;;43.05;;
20861;SDS011;10591;52.532;13.348;2024-03-02T04:11:57;62.60;;;41.85;;
20861;SDS011;10591;52.532;13.348;2024-03-02T04:14:29;59.23;;;41.20;;
20861;SDS011;10591;52.532;13.348;2024-03-02T04:17:00;59.77;;;40.45;;
20861;SDS011;10591;52.532;13.348;2024-03-02T04:19:30;58.55;;;40.85;;
20861;SDS011;10591;52.532;13.348;2024-03-02T04:22:01;57.80;;;39.98;;
20861;SDS011;10591;52.532;13.348;2024-03-02T04:24:35;58.78;;;40.45;;
20861;SDS011;10591;52.532;13.348;2024-03-02T04:27:06;62.90;;;40.90;;
20861;SDS011;10591;52.532;13.348;2024-03-02T04:29:37;58.55;;;40.60;;
20861;SDS011;10591;52.532;13.348;2024-03-02T04:32:08;59.75;;;39.75;;
20861;SDS011;10591;52.532;13.348;2024-03-02T04:34:39;58.92;;;40.08;;
20861;SDS011;10591;52.532;13.348;2024-03-02T04:37:10;55.65;;;39.70;;
20861;SDS011;10591;52.532;13.348;2024-03-02T04:39:41;53.70;;;38.10;;
20861;SDS011;10591;52.532;13.348;2024-03-02T04:42:12;54.00;;;38.98;;
20861;SDS011;10591;52.532;13.348;2024-03-02T04:44:43;52.25;;;38.60;;
20861;SDS011;10591;52.532;13.348;2024-03-02T04:47:14;53.85;;;38.50;;
20861;SDS011;10591;52.532;13.348;2024-03-02T04:49:44;52.48;;;38.38;;
20861;SDS011;10591;52.532;13.348;2024-03-02T04:52:16;52.73;;;38.28;;
20861;SDS011;10591;52.532;13.348;2024-03-02T04:54:48;49.73;;;36.25;;
20861;SDS011;10591;52.532;13.348;2024-03-02T04:57:38;51.88;;;36.28;;
20861;SDS011;10591;52.532;13.348;2024-03-02T05:00:09;53.40;;;37.60;;
20861;SDS011;10591;52.532;13.348;2024-03-02T05:02:41;51.42;;;36.00;;
20861;SDS011;10591;52.532;13.348;2024-03-02T05:05:12;50.40;;;37.03;;
20861;SDS011;10591;52.532;13.348;2024-03-02T05:07:47;50.10;;;36.58;;
20861;SDS011;10591;52.532;13.348;2024-03-02T05:10:17;51.35;;;37.28;;
20861;SDS011;10591;52.532;13.348;2024-03-02T05:12:48;51.98;;;36.63;;
20861;SDS011;10591;52.532;13.348;2024-03-02T05:15:29;48.95;;;35.90;;
20861;SDS011;10591;52.532;13.348;2024-03-02T05:18:00;59.03;;;37.40;;
20861;SDS011;10591;52.532;13.348;2024-03-02T05:20:33;50.58;;;35.75;;
20861;SDS011;10591;52.532;13.348;2024-03-02T05:23:03;50.95;;;37.28;;
20861;SDS011;10591;52.532;13.348;2024-03-02T05:25:34;53.00;;;37.13;;
20861;SDS011;10591;52.532;13.348;2024-03-02T05:28:05;51.77;;;36.88;;
20861;SDS011;10591;52.532;13.348;2024-03-02T05:30:36;56.33;;;37.93;;
20861;SDS011;10591;52.532;13.348;2024-03-02T05:33:07;52.88;;;37.75;;
20861;SDS011;10591;52.532;13.348;2024-03-02T05:35:37;54.85;;;36.93;;
20861;SDS011;10591;52.532;13.348;2024-03-02T05:38:08;54.83;;;38.73;;
20861;SDS011;10591;52.532;13.348;2024-03-02T05:40:39;59.27;;;39.03;;
20861;SDS011;10591;52.532;13.348;2024-03-02T05:43:10;60.08;;;40.40;;
20861;SDS011;10591;52.532;13.348;2024-03-02T05:45:41;60.00;;;40.58;;
20861;SDS011;10591;52.532;13.348;2024-03-02T05:48:12;56.33;;;40.85;;
20861;SDS011;10591;52.532;13.348;2024-03-02T05:50:43;61.68;;;41.08;;
20861;SDS011;10591;52.532;13.348;2024-03-02T05:53:14;62.80;;;40.35;;
20861;SDS011;10591;52.532;13.348;2024-03-02T05:55:47;58.02;;;40.92;;
20861;SDS011;10591;52.532;13.348;2024-03-02T05:58:21;67.47;;;43.08;;
20861;SDS011;10591;52.532;13.348;2024-03-02T06:01:11;62.30;;;42.88;;
20861;SDS011;10591;52.532;13.348;2024-03-02T06:03:44;59.70;;;40.63;;
20861;SDS011;10591;52.532;13.348;2024-03-02T06:06:15;61.05;;;41.70;;
20861;SDS011;10591;52.532;13.348;2024-03-02T06:08:47;63.00;;;42.75;;
20861;SDS011;10591;52.532;13.348;2024-03-02T06:11:21;70.10;;;44.85;;
20861;SDS011;10591;52.532;13.348;2024-03-02T06:13:51;64.12;;;43.15;;
20861;SDS011;10591;52.532;13.348;2024-03-02T06:16:23;63.33;;;42.45;;
20861;SDS011;10591;52.532;13.348;2024-03-02T06:18:55;67.27;;;43.35;;
20861;SDS011;10591;52.532;13.348;2024-03-02T06:21:28;67.37;;;43.75;;
20861;SDS011;10591;52.532;13.348;2024-03-02T06:23:59;66.53;;;42.67;;
20861;SDS011;10591;52.532;13.348;2024-03-02T06:26:30;69.67;;;42.98;;
20861;SDS011;10591;52.532;13.348;2024-03-02T06:29:00;65.90;;;42.62;;
20861;SDS011;10591;52.532;13.348;2024-03-02T06:31:37;60.95;;;42.00;;
20861;SDS011;10591;52.532;13.348;2024-03-02T06:34:04;63.15;;;42.62;;
20861;SDS011;10591;52.532;13.348;2024-03-02T06:36:38;60.48;;;41.00;;
20861;SDS011;10591;52.532;13.348;2024-03-02T06:39:10;65.78;;;42.43;;
20861;SDS011;10591;52.532;13.348;2024-03-02T06:41:42;61.18;;;41.13;;
20861;SDS011;10591;52.532;13.348;2024-03-02T06:44:12;62.78;;;41.95;;
20861;SDS011;10591;52.532;13.348;2024-03-02T06:46:43;63.87;;;42.33;;
20861;SDS011;10591;52.532;13.348;2024-03-02T06:49:15;64.25;;;40.33;;
20861;SDS011;10591;52.532;13.348;2024-03-02T06:51:46;64.80;;;40.50;;
20861;SDS011;10591;52.532;13.348;2024-03-02T06:54:19;60.75;;;40.20;;
20861;SDS011;10591;52.532;13.348;2024-03-02T06:56:49;61.25;;;40.80;;
20861;SDS011;10591;52.532;13.348;2024-03-02T06:59:20;63.58;;;40.92;;
20861;SDS011;10591;52.532;13.348;2024-03-02T07:01:50;61.02;;;40.38;;
20861;SDS011;10591;52.532;13.348;2024-03-02T07:04:21;62.15;;;40.50;;
20861;SDS011;10591;52.532;13.348;2024-03-02T07:06:52;60.45;;;40.20;;
20861;SDS011;10591;52.532;13.348;2024-03-02T07:09:24;64.30;;;41.23;;
20861;SDS011;10591;52.532;13.348;2024-03-02T07:11:55;62.67;;;42.27;;
20861;SDS011;10591;52.532;13.348;2024-03-02T07:14:26;61.28;;;41.75;;
20861;SDS011;10591;52.532;13.348;2024-03-02T07:16:58;64.45;;;42.45;;
20861;SDS011;10591;52.532;13.348;2024-03-02T07:19:29;61.98;;;40.30;;
20861;SDS011;10591;52.532;13.348;2024-03-02T07:22:00;65.92;;;41.65;;
20861;SDS011;10591;52.532;13.348;2024-03-02T07:24:30;62.40;;;42.75;;
20861;SDS011;10591;52.532;13.348;2024-03-02T07:27:01;65.83;;;42.00;;
20861;SDS011;10591;52.532;13.348;2024-03-02T07:29:33;64.55;;;40.83;;
20861;SDS011;10591;52.532;13.348;2024-03-02T07:32:08;61.20;;;39.90;;
20861;SDS011;10591;52.532;13.348;2024-03-02T07:34:39;62.62;;;40.30;;
20861;SDS011;10591;52.532;13.348;2024-03-02T07:37:10;63.75;;;40.92;;
20861;SDS011;10591;52.532;13.348;2024-03-02T07:39:41;63.45;;;41.65;;
20861;SDS011;10591;52.532;13.348;2024-03-02T07:42:12;60.95;;;40.43;;
20861;SDS011;10591;52.532;13.348;2024-03-02T07:44:44;64.12;;;41.02;;
20861;SDS011;10591;52.532;13.348;2024-03-02T07:47:16;65.17;;;41.58;;
20861;SDS011;10591;52.532;13.348;2024-03-02T07:49:48;63.02;;;41.73;;
20861;SDS011;10591;52.532;13.348;2024-03-02T07:52:18;65.15;;;41.53;;
20861;SDS011;10591;52.532;13.348;2024-03-02T07:54:49;59.77;;;40.70;;
20861;SDS011;10591;52.532;13.348;2024-03-02T07:57:20;64.87;;;40.65;;
20861;SDS011;10591;52.532;13.348;2024-03-02T07:59:51;63.42;;;42.17;;
20861;SDS011;10591;52.532;13.348;2024-03-02T08:02:21;62.50;;;40.12;;
20861;SDS011;10591;52.532;13.348;2024-03-02T08:04:52;61.90;;;38.90;;
20861;SDS011;10591;52.532;13.348;2024-03-02T08:07:23;62.48;;;40.08;;
20861;SDS011;10591;52.532;13.348;2024-03-02T08:09:54;61.00;;;39.60;;
20861;SDS011;10591;52.532;13.348;2024-03-02T08:12:25;60.65;;;39.05;;
20861;SDS011;10591;52.532;13.348;2024-03-02T08:14:56;59.93;;;40.10;;
20861;SDS011;10591;52.532;13.348;2024-03-02T08:17:27;60.38;;;40.80;;
20861;SDS011;10591;52.532;13.348;2024-03-02T08:20:01;56.95;;;39.58;;
20861;SDS011;10591;52.532;13.348;2024-03-02T08:22:34;56.95;;;38.35;;
20861;SDS011;10591;52.532;13.348;2024-03-02T08:25:13;57.35;;;38.42;;
20861;SDS011;10591;52.532;13.348;2024-03-02T08:27:39;59.70;;;38.85;;
20861;SDS011;10591;52.532;13.348;2024-03-02T08:30:12;57.38;;;37.93;;
20861;SDS011;10591;52.532;13.348;2024-03-02T08:32:43;57.03;;;38.15;;
20861;SDS011;10591;52.532;13.348;2024-03-02T08:35:17;58.68;;;38.58;;
20861;SDS011;10591;52.532;13.348;2024-03-02T08:37:48;59.67;;;39.20;;
20861;SDS011;10591;52.532;13.348;2024-03-02T08:40:19;59.90;;;38.85;;
20861;SDS011;10591;52.532;13.348;2024-03-02T08:42:50;63.78;;;40.08;;
20861;SDS011;10591;52.532;13.348;2024-03-02T08:45:22;60.65;;;41.10;;
20861;SDS011;10591;52.532;13.348;2024-03-02T08:47:53;60.65;;;40.78;;
20861;SDS011;10591;52.532;13.348;2024-03-02T08:50:26;58.17;;;38.42;;
20861;SDS011;10591;52.532;13.348;2024-03-02T08:52:57;60.15;;;40.05;;
20861;SDS011;10591;52.532;13.348;2024-03-02T08:55:28;60.88;;;39.35;;
20861;SDS011;10591;52.532;13.348;2024-03-02T08:57:58;60.45;;;38.83;;
20861;SDS011;10591;52.532;13.348;2024-03-02T09:00:32;57.50;;;39.23;;
20861;SDS011;10591;52.532;13.348;2024-03-02T09:03:03;54.13;;;36.23;;
20861;SDS011;10591;52.532;13.348;2024-03-02T09:05:34;54.67;;;36.73;;
20861;SDS011;10591;52.532;13.348;2024-03-02T09:08:05;60.25;;;38.40;;
20861;SDS011;10591;52.532;13.348;2024-03-02T09:10:36;50.85;;;36.53;;
20861;SDS011;10591;52.532;13.348;2024-03-02T09:13:08;54.23;;;38.33;;
20861;SDS011;10591;52.532;13.348;2024-03-02T09:15:41;53.52;;;36.17;;
20861;SDS011;10591;52.532;13.348;2024-03-02T09:18:13;56.58;;;36.80;;
20861;SDS011;10591;52.532;13.348;2024-03-02T09:20:45;53.85;;;36.63;;
20861;SDS011;10591;52.532;13.348;2024-03-02T09:23:16;54.10;;;36.40;;
20861;SDS011;10591;52.532;13.348;2024-03-02T09:25:47;53.83;;;35.80;;
20861;SDS011;10591;52.532;13.348;2024-03-02T09:28:18;54.85;;;36.25;;
20861;SDS011;10591;52.532;13.348;2024-03-02T09:30:49;54.33;;;34.83;;
20861;SDS011;10591;52.532;13.348;2024-03-02T09:33:19;56.20;;;37.13;;
20861;SDS011;10591;52.532;13.348;2024-03-02T09:35:52;55.98;;;37.45;;
20861;SDS011;10591;52.532;13.348;2024-03-02T09:38:23;52.60;;;35.70;;
20861;SDS011;10591;52.532;13.348;2024-03-02T09:40:55;53.48;;;35.68;;
20861;SDS011;10591;52.532;13.348;2024-03-02T09:43:27;52.15;;;36.25;;
20861;SDS011;10591;52.532;13.348;2024-03-02T09:45:58;48.68;;;34.85;;
20861;SDS011;10591;52.532;13.348;2024-03-02T09:48:30;49.55;;;34.85;;
20861;SDS011;10591;52.532;13.348;2024-03-02T09:51:04;48.92;;;33.85;;
20861;SDS011;10591;52.532;13.348;2024-03-02T09:53:35;48.08;;;33.95;;
20861;SDS011;10591;52.532;13.348;2024-03-02T09:56:06;48.90;;;34.53;;
20861;SDS011;10591;52.532;13.348;2024-03-02T09:58:38;51.65;;;35.75;;
20861;SDS011;10591;52.532;13.348;2024-03-02T10:01:09;50.52;;;33.35;;
20861;SDS011;10591;52.532;13.348;2024-03-02T10:03:40;43.58;;;31.42;;
20861;SDS011;10591;52.532;13.348;2024-03-02T10:06:19;44.10;;;30.90;;
20861;SDS011;10591;52.532;13.348;2024-03-02T10:08:54;47.75;;;31.75;;
20861;SDS011;10591;52.532;13.348;2024-03-02T10:11:29;44.77;;;31.37;;
20861;SDS011;10591;52.532;13.348;2024-03-02T10:14:06;43.15;;;31.80;;
20861;SDS011;10591;52.532;13.348;2024-03-02T10:16:46;44.80;;;32.03;;
20861;SDS011;10591;52.532;13.348;2024-03-02T10:19:19;42.23;;;30.57;;
20861;SDS011;10591;52.532;13.348;2024-03-02T10:21:52;47.03;;;31.50;;
20861;SDS011;10591;52.532;13.348;2024-03-02T10:24:27;42.90;;;30.27;;
20861;SDS011;10591;52.532;13.348;2024-03-02T10:26:57;41.45;;;30.20;;
20861;SDS011;10591;52.532;13.348;2024-03-02T10:29:29;43.23;;;30.05;;
20861;SDS011;10591;52.532;13.348;2024-03-02T10:32:01;41.80;;;29.65;;
20861;SDS011;10591;52.532;13.348;2024-03-02T10:34:35;39.03;;;28.12;;
20861;SDS011;10591;52.532;13.348;2024-03-02T10:37:07;39.78;;;28.98;;
20861;SDS011;10591;52.532;13.348;2024-03-02T10:39:37;41.20;;;28.15;;
20861;SDS011;10591;52.532;13.348;2024-03-02T10:42:10;37.17;;;27.52;;
20861;SDS011;10591;52.532;13.348;2024-03-02T10:44:42;40.73;;;27.10;;
20861;SDS011;10591;52.532;13.348;2024-03-02T10:47:13;36.40;;;27.17;;
20861;SDS011;10591;52.532;13.348;2024-03-02T10:49:45;36.05;;;26.48;;
20861;SDS011;10591;52.532;13.348;2024-03-02T10:52:21;33.48;;;25.35;;
20861;SDS011;10591;52.532;13.348;2024-03-02T10:54:52;33.85;;;24.40;;
20861;SDS011;10591;52.532;13.348;2024-03-02T10:57:23;33.80;;;24.47;;
20861;SDS011;10591;52.532;13.348;2024-03-02T10:59:56;37.30;;;26.30;;
20861;SDS011;10591;52.532;13.348;2024-03-02T11:02:30;32.90;;;25.48;;
20861;SDS011;10591;52.532;13.348;2024-03-02T11:05:04;33.90;;;23.30;;
20861;SDS011;10591;52.532;13.348;2024-03-02T11:07:38;37.17;;;27.10;;
20861;SDS011;10591;52.532;13.348;2024-03-02T11:10:13;33.18;;;24.63;;
20861;SDS011;10591;52.532;13.348;2024-03-02T11:12:56;37.40;;;27.20;;
20861;SDS011;10591;52.532;13.348;2024-03-02T11:15:28;33.40;;;24.82;;
20861;SDS011;10591;52.532;13.348;2024-03-02T11:18:01;30.32;;;23.75;;
20861;SDS011;10591;52.532;13.348;2024-03-02T11:20:38;31.95;;;22.50;;
20861;SDS011;10591;52.532;13.348;2024-03-02T11:23:12;29.55;;;22.62;;
20861;SDS011;10591;52.532;13.348;2024-03-02T11:25:44;32.10;;;23.02;;
20861;SDS011;10591;52.532;13.348;2024-03-02T11:28:17;30.32;;;23.12;;
20861;SDS011;10591;52.532;13.348;2024-03-02T11:30:51;26.80;;;21.27;;
20861;SDS011;10591;52.532;13.348;2024-03-02T11:33:23;28.95;;;22.32;;
20861;SDS011;10591;52.532;13.348;2024-03-02T11:35:57;28.98;;;21.77;;
20861;SDS011;10591;52.532;13.348;2024-03-02T11:38:34;31.20;;;22.62;;
20861;SDS011;10591;52.532;13.348;2024-03-02T11:41:10;29.37;;;22.48;;
20861;SDS011;10591;52.532;13.348;2024-03-02T11:43:40;30.20;;;22.55;;
20861;SDS011;10591;52.532;13.348;2024-03-02T11:46:15;27.70;;;21.33;;
20861;SDS011;10591;52.532;13.348;2024-03-02T11:48:46;26.27;;;20.75;;
20861;SDS011;10591;52.532;13.348;2024-03-02T11:51:17;27.40;;;21.48;;
20861;SDS011;10591;52.532;13.348;2024-03-02T11:53:49;26.37;;;20.85;;
20861;SDS011;10591;52.532;13.348;2024-03-02T11:56:22;28.12;;;20.80;;
20861;SDS011;10591;52.532;13.348;2024-03-02T11:58:54;28.27;;;22.13;;
20861;SDS011;10591;52.532;13.348;2024-03-02T12:01:26;25.45;;;20.17;;
20861;SDS011;10591;52.532;13.348;2024-03-02T12:03:59;27.22;;;21.50;;
20861;SDS011;10591;52.532;13.348;2024-03-02T12:06:30;29.05;;;20.40;;
20861;SDS011;10591;52.532;13.348;2024-03-02T12:09:03;29.77;;;21.75;;
20861;SDS011;10591;52.532;13.348;2024-03-02T12:11:35;28.57;;;22.10;;
20861;SDS011;10591;52.532;13.348;2024-03-02T12:14:11;28.40;;;21.20;;
20861;SDS011;10591;52.532;13.348;2024-03-02T12:16:45;27.60;;;21.68;;
20861;SDS011;10591;52.532;13.348;2024-03-02T12:19:16;28.70;;;22.02;;
20861;SDS011;10591;52.532;13.348;2024-03-02T12:21:48;29.32;;;23.07;;
20861;SDS011;10591;52.532;13.348;2024-03-02T12:24:20;30.02;;;21.95;;
20861;SDS011;10591;52.532;13.348;2024-03-02T12:26:51;29.85;;;21.87;;
20861;SDS011;10591;52.532;13.348;2024-03-02T12:29:22;30.08;;;21.70;;
20861;SDS011;10591;52.532;13.348;2024-03-02T12:31:53;30.45;;;23.18;;
20861;SDS011;10591;52.532;13.348;2024-03-02T12:34:29;29.55;;;22.45;;
20861;SDS011;10591;52.532;13.348;2024-03-02T12:37:00;30.35;;;22.20;;
20861;SDS011;10591;52.532;13.348;2024-03-02T12:39:34;28.02;;;21.57;;
20861;SDS011;10591;52.532;13.348;2024-03-02T12:42:05;26.87;;;21.42;;
20861;SDS011;10591;52.532;13.348;2024-03-02T12:44:39;30.55;;;22.25;;
20861;SDS011;10591;52.532;13.348;2024-03-02T12:47:11;26.65;;;21.62;;
20861;SDS011;10591;52.532;13.348;2024-03-02T12:49:42;30.57;;;21.52;;
20861;SDS011;10591;52.532;13.348;2024-03-02T12:52:15;30.85;;;22.60;;
20861;SDS011;10591;52.532;13.348;2024-03-02T12:54:49;29.82;;;22.58;;
20861;SDS011;10591;52.532;13.348;2024-03-02T12:57:22;31.12;;;22.45;;
20861;SDS011;10591;52.532;13.348;2024-03-02T13:00:03;30.80;;;22.82;;
20861;SDS011;10591;52.532;13.348;2024-03-02T13:02:45;30.60;;;23.50;;
20861;SDS011;10591;52.532;13.348;2024-03-02T13:05:17;30.35;;;23.50;;
20861;SDS011;10591;52.532;13.348;2024-03-02T13:07:50;29.65;;;22.85;;
20861;SDS011;10591;52.532;13.348;2024-03-02T13:10:20;27.87;;;21.35;;
20861;SDS011;10591;52.532;13.348;2024-03-02T13:12:52;29.65;;;22.62;;
20861;SDS011;10591;52.532;13.348;2024-03-02T13:15:23;28.57;;;22.17;;
20861;SDS011;10591;52.532;13.348;2024-03-02T13:17:58;24.77;;;19.70;;
20861;SDS011;10591;52.532;13.348;2024-03-02T13:20:32;25.10;;;19.92;;
20861;SDS011;10591;52.532;13.348;2024-03-02T13:23:05;26.75;;;21.65;;
20861;SDS011;10591;52.532;13.348;2024-03-02T13:25:35;24.50;;;19.37;;
20861;SDS011;10591;52.532;13.348;2024-03-02T13:28:06;24.98;;;18.87;;
20861;SDS011;10591;52.532;13.348;2024-03-02T13:30:38;26.30;;;20.40;;
20861;SDS011;10591;52.532;13.348;2024-03-02T13:33:10;24.07;;;19.35;;
20861;SDS011;10591;52.532;13.348;2024-03-02T13:35:41;25.10;;;19.90;;
20861;SDS011;10591;52.532;13.348;2024-03-02T13:38:14;25.35;;;18.95;;
20861;SDS011;10591;52.532;13.348;2024-03-02T13:40:48;25.27;;;19.02;;
20861;SDS011;10591;52.532;13.348;2024-03-02T13:43:22;23.38;;;17.60;;
20861;SDS011;10591;52.532;13.348;2024-03-02T13:45:53;25.25;;;19.75;;
20861;SDS011;10591;52.532;13.348;2024-03-02T13:48:25;22.02;;;18.77;;
20861;SDS011;10591;52.532;13.348;2024-03-02T13:50:55;23.35;;;18.12;;
20861;SDS011;10591;52.532;13.348;2024-03-02T13:53:32;24.30;;;18.65;;
20861;SDS011;10591;52.532;13.348;2024-03-02T13:56:04;22.80;;;18.90;;
20861;SDS011;10591;52.532;13.348;2024-03-02T13:58:37;24.65;;;19.27;;
20861;SDS011;10591;52.532;13.348;2024-03-02T14:01:08;22.65;;;18.00;;
20861;SDS011;10591;52.532;13.348;2024-03-02T14:03:39;18.65;;;15.55;;
20861;SDS011;10591;52.532;13.348;2024-03-02T14:06:11;20.05;;;16.15;;
20861;SDS011;10591;52.532;13.348;2024-03-02T14:08:42;23.57;;;17.55;;
20861;SDS011;10591;52.532;13.348;2024-03-02T14:11:14;21.70;;;16.45;;
20861;SDS011;10591;52.532;13.348;2024-03-02T14:13:46;22.85;;;16.97;;
20861;SDS011;10591;52.532;13.348;2024-03-02T14:16:18;24.37;;;18.45;;
20861;SDS011;10591;52.532;13.348;2024-03-02T14:18:51;22.85;;;16.75;;
20861;SDS011;10591;52.532;13.348;2024-03-02T14:21:23;19.82;;;15.13;;
20861;SDS011;10591;52.532;13.348;2024-03-02T14:23:56;22.10;;;16.60;;
20861;SDS011;10591;52.532;13.348;2024-03-02T14:26:27;21.60;;;16.12;;
20861;SDS011;10591;52.532;13.348;2024-03-02T14:28:57;19.42;;;15.05;;
20861;SDS011;10591;52.532;13.348;2024-03-02T14:31:33;19.65;;;15.10;;
20861;SDS011;10591;52.532;13.348;2024-03-02T14:34:07;21.00;;;15.08;;
20861;SDS011;10591;52.532;13.348;2024-03-02T14:36:40;20.65;;;14.93;;